createdAt,value
2019-02-26T00:02:21.362Z,99.90
2019-02-26T00:04:49.114Z,99.90
2019-02-26T00:07:18.866Z,99.90
2019-02-26T00:09:51.195Z,99.90
2019-02-26T00:12:19.923Z,99.90
2019-02-26T00:14:47.879Z,99.90
2019-02-26T00:17:28.168Z,99.90
2019-02-26T00:20:15.006Z,99.90
2019-02-26T00:22:49.864Z,99.90
2019-02-26T00:25:20.366Z,99.90
2019-02-26T00:27:58.764Z,99.90
2019-02-26T00:30:26.568Z,99.90
2019-02-26T00:32:55.478Z,99.90
2019-02-26T00:35:25.320Z,99.90
2019-02-26T00:37:55.273Z,99.90
2019-02-26T00:40:22.683Z,99.90
2019-02-26T00:42:54.345Z,99.90
2019-02-26T00:45:24.728Z,99.90
2019-02-26T00:47:49.642Z,99.90
2019-02-26T00:50:17.539Z,99.90
2019-02-26T00:52:45.373Z,99.90
2019-02-26T00:55:12.989Z,99.90
2019-02-26T00:57:42.539Z,99.90
2019-02-26T01:00:12.401Z,99.90
2019-02-26T01:02:40.164Z,99.90
2019-02-26T01:05:08.731Z,99.90
2019-02-26T01:07:37.718Z,99.90
2019-02-26T01:10:05.946Z,99.90
2019-02-26T01:12:40.291Z,99.90
2019-02-26T01:15:11.481Z,99.90
2019-02-26T01:17:40.108Z,99.90
2019-02-26T01:20:13.872Z,99.90
2019-02-26T01:22:42.907Z,99.90
2019-02-26T01:25:12.743Z,99.90
2019-02-26T01:27:41.369Z,99.90
2019-02-26T01:30:11.767Z,99.90
2019-02-26T01:32:40.761Z,99.90
2019-02-26T01:35:10.675Z,99.90
2019-02-26T01:37:40.034Z,99.90
2019-02-26T01:40:12.247Z,99.90
2019-02-26T01:42:38.798Z,99.90
2019-02-26T01:45:08.055Z,99.90
2019-02-26T01:47:35.812Z,99.90
2019-02-26T01:50:06.949Z,99.90
2019-02-26T01:52:34.197Z,99.90
2019-02-26T01:55:02.776Z,99.90
2019-02-26T01:57:30.463Z,99.90
2019-02-26T01:59:58.129Z,99.90
2019-02-26T02:02:28.227Z,99.90
2019-02-26T02:04:57.262Z,99.90
2019-02-26T02:07:28.099Z,99.90
2019-02-26T02:09:57.988Z,99.90
2019-02-26T02:12:27.442Z,99.90
2019-02-26T02:14:54.820Z,99.90
2019-02-26T02:17:22.426Z,99.90
2019-02-26T02:19:50.254Z,99.90
2019-02-26T02:22:19.055Z,99.90
2019-02-26T02:24:48.498Z,99.90
2019-02-26T02:27:28.171Z,99.90
2019-02-26T02:30:05.018Z,99.90
2019-02-26T02:32:34.480Z,99.90
2019-02-26T02:35:04.434Z,99.90
2019-02-26T02:37:32.015Z,99.90
2019-02-26T02:39:59.698Z,99.90
2019-02-26T02:42:29.100Z,99.90
2019-02-26T02:44:56.734Z,99.90
2019-02-26T02:47:27.306Z,99.90
2019-02-26T02:49:54.356Z,99.90
2019-02-26T02:52:24.144Z,99.90
2019-02-26T02:54:51.894Z,99.90
2019-02-26T02:57:21.731Z,99.90
2019-02-26T02:59:48.957Z,99.90
2019-02-26T03:02:17.636Z,99.90
2019-02-26T03:04:46.197Z,99.90
2019-02-26T03:07:15.262Z,99.90
2019-02-26T03:09:45.650Z,99.90
2019-02-26T03:12:13.121Z,99.90
2019-02-26T03:14:41.992Z,99.90
2019-02-26T03:17:11.166Z,99.90
2019-02-26T03:19:41.596Z,99.90
2019-02-26T03:22:09.793Z,99.90
2019-02-26T03:24:38.870Z,99.90
2019-02-26T03:27:06.438Z,99.90
2019-02-26T03:29:34.085Z,99.90
2019-02-26T03:32:01.783Z,99.90
2019-02-26T03:34:29.348Z,99.90
2019-02-26T03:36:57.820Z,99.90
2019-02-26T03:39:27.077Z,99.90
2019-02-26T03:41:56.432Z,99.90
2019-02-26T03:44:24.138Z,99.90
2019-02-26T03:46:51.822Z,99.90
2019-02-26T03:49:19.497Z,99.90
2019-02-26T03:51:47.095Z,99.90
2019-02-26T03:54:14.931Z,99.90
2019-02-26T03:56:42.577Z,99.90
2019-02-26T03:59:11.798Z,99.90
2019-02-26T04:01:39.858Z,99.90
2019-02-26T04:04:08.638Z,99.90
2019-02-26T04:06:38.923Z,99.90
2019-02-26T04:09:11.081Z,99.90
2019-02-26T04:11:47.035Z,99.90
2019-02-26T04:14:15.011Z,99.90
2019-02-26T04:16:44.580Z,99.90
2019-02-26T04:19:13.347Z,99.90
2019-02-26T04:22:18.790Z,99.90
2019-02-26T04:24:50.039Z,99.90
2019-02-26T04:27:52.503Z,99.90
2019-02-26T04:30:55.014Z,99.90
2019-02-26T04:34:04.385Z,99.90
2019-02-26T04:37:17.155Z,99.90
2019-02-26T04:40:11.912Z,99.90
2019-02-26T04:43:34.185Z,99.90
2019-02-26T04:46:46.398Z,99.90
2019-02-26T04:49:15.512Z,99.90
2019-02-26T04:51:45.828Z,99.90
2019-02-26T04:54:21.082Z,99.90
2019-02-26T04:56:48.032Z,99.90
2019-02-26T04:59:25.944Z,99.90
2019-02-26T05:02:00.224Z,99.90
2019-02-26T05:04:33.793Z,99.90
2019-02-26T05:07:04.353Z,99.90
2019-02-26T05:09:36.602Z,99.90
2019-02-26T05:12:04.230Z,99.90
2019-02-26T05:14:32.161Z,99.90
2019-02-26T05:17:00.003Z,99.90
2019-02-26T05:19:27.675Z,99.90
2019-02-26T05:21:56.784Z,99.90
2019-02-26T05:24:26.337Z,99.90
2019-02-26T05:26:54.241Z,99.90
2019-02-26T05:33:08.879Z,99.90
2019-02-26T05:35:37.812Z,99.90
2019-02-26T05:38:07.704Z,99.90
2019-02-26T05:40:37.832Z,99.90
2019-02-26T05:43:11.887Z,99.90
2019-02-26T05:45:40.609Z,99.90
2019-02-26T05:48:09.709Z,99.90
2019-02-26T05:50:38.437Z,99.90
2019-02-26T05:53:08.417Z,99.90
2019-02-26T05:55:38.068Z,99.90
2019-02-26T05:58:15.183Z,99.90
2019-02-26T06:00:47.773Z,99.90
2019-02-26T06:03:18.853Z,99.90
2019-02-26T06:05:58.293Z,99.90
2019-02-26T06:09:33.694Z,99.90
2019-02-26T06:12:07.615Z,99.90
2019-02-26T06:15:20.325Z,99.90
2019-02-26T06:17:51.513Z,99.90
2019-02-26T06:20:23.643Z,99.90
2019-02-26T06:22:55.753Z,99.90
2019-02-26T06:25:24.578Z,99.90
2019-02-26T06:28:20.049Z,99.90
2019-02-26T06:31:01.767Z,99.90
2019-02-26T06:33:43.685Z,99.90
2019-02-26T06:36:25.890Z,99.90
2019-02-26T06:39:01.545Z,99.90
2019-02-26T06:41:32.995Z,99.90
2019-02-26T06:44:08.169Z,99.90
2019-02-26T06:47:09.075Z,99.90
2019-02-26T06:53:30.455Z,99.90
2019-02-26T06:56:01.267Z,99.90
2019-02-26T06:58:30.253Z,99.90
2019-02-26T07:01:07.630Z,99.90
2019-02-26T07:03:40.425Z,99.90
2019-02-26T07:06:18.428Z,99.90
2019-02-26T07:08:49.359Z,99.90
2019-02-26T07:11:45.765Z,99.90
2019-02-26T07:14:23.126Z,99.90
2019-02-26T07:16:53.112Z,99.90
2019-02-26T07:19:23.780Z,99.90
2019-02-26T07:22:01.273Z,99.90
2019-02-26T07:25:08.913Z,99.90
2019-02-26T07:27:45.198Z,99.90
2019-02-26T07:30:48.688Z,99.90
2019-02-26T07:33:58.063Z,99.90
2019-02-26T07:37:01.473Z,99.90
2019-02-26T07:39:31.097Z,99.90
2019-02-26T07:42:03.675Z,99.90
2019-02-26T07:44:32.554Z,99.90
2019-02-26T07:47:03.723Z,99.90
2019-02-26T07:49:30.769Z,99.90
2019-02-26T07:52:03.874Z,99.90
2019-02-26T07:54:37.783Z,99.90
2019-02-26T07:57:09.481Z,99.90
2019-02-26T07:59:47.688Z,99.90
2019-02-26T08:02:25.599Z,99.90
2019-02-26T08:05:06.808Z,99.90
2019-02-26T08:07:51.229Z,99.90
2019-02-26T08:10:35.127Z,99.90
2019-02-26T08:13:05.701Z,99.90
2019-02-26T08:15:43.640Z,99.50
2019-02-26T08:18:12.981Z,98.70
2019-02-26T08:20:48.383Z,99.50
2019-02-26T08:23:21.527Z,99.10
2019-02-26T08:25:57.814Z,99.30
2019-02-26T08:28:26.300Z,99.80
2019-02-26T08:30:57.557Z,98.90
2019-02-26T08:37:42.812Z,96.50
2019-02-26T08:40:35.968Z,95.50
2019-02-26T08:43:06.249Z,96.60
2019-02-26T08:45:44.334Z,97.40
2019-02-26T08:48:46.151Z,97.90
2019-02-26T08:51:21.641Z,97.00
2019-02-26T08:53:51.740Z,96.30
2019-02-26T09:00:47.054Z,95.70
2019-02-26T09:07:10.639Z,94.60
2019-02-26T09:09:41.318Z,95.40
2019-02-26T09:12:15.288Z,96.30
2019-02-26T09:14:50.536Z,99.00
2019-02-26T09:17:23.168Z,99.90
2019-02-26T09:20:08.437Z,99.90
2019-02-26T09:22:54.584Z,99.90
2019-02-26T09:25:35.541Z,99.90
2019-02-26T09:28:22.307Z,99.90
2019-02-26T09:30:53.692Z,99.90
2019-02-26T09:33:27.311Z,99.90
2019-02-26T09:35:54.345Z,99.90
2019-02-26T09:38:22.966Z,99.90
2019-02-26T09:40:52.346Z,99.90
2019-02-26T09:43:24.382Z,99.90
2019-02-26T09:45:52.926Z,99.90
2019-02-26T09:48:21.963Z,99.90
2019-02-26T09:50:49.975Z,99.90
2019-02-26T09:53:17.808Z,99.90
2019-02-26T09:56:03.116Z,99.90
2019-02-26T09:58:48.230Z,99.90
2019-02-26T10:11:44.310Z,99.90
2019-02-26T10:14:35.868Z,99.90
2019-02-26T10:17:03.595Z,99.90
2019-02-26T10:19:41.169Z,99.90
2019-02-26T10:22:12.740Z,99.90
2019-02-26T10:24:44.429Z,99.90
2019-02-26T10:27:14.593Z,99.90
2019-02-26T10:29:49.990Z,99.90
2019-02-26T10:32:20.546Z,99.90
2019-02-26T10:34:58.983Z,99.90
2019-02-26T10:37:40.884Z,99.90
2019-02-26T10:44:39.751Z,99.90
2019-02-26T10:47:37.394Z,99.90
2019-02-26T10:50:10.047Z,99.90
2019-02-26T10:53:06.736Z,99.90
2019-02-26T10:55:35.327Z,99.90
2019-02-26T10:57:59.176Z,99.90
2019-02-26T11:00:32.258Z,99.90
2019-02-26T11:03:02.563Z,99.90
2019-02-26T11:05:31.604Z,99.90
2019-02-26T11:08:15.380Z,99.90
2019-02-26T11:11:00.596Z,99.90
2019-02-26T11:13:42.710Z,99.90
2019-02-26T11:16:17.302Z,99.90
2019-02-26T11:18:42.689Z,99.80
2019-02-26T11:21:11.215Z,99.70
2019-02-26T11:23:48.620Z,99.30
2019-02-26T11:37:08.894Z,98.60
2019-02-26T11:39:49.613Z,98.20
2019-02-26T11:42:28.620Z,98.20
2019-02-26T11:45:50.853Z,97.50
2019-02-26T11:49:11.784Z,97.40
2019-02-26T11:52:01.608Z,97.10
2019-02-26T11:54:40.254Z,96.90
2019-02-26T12:04:50.856Z,96.10
2019-02-26T12:14:56.236Z,95.20
2019-02-26T12:17:27.110Z,95.20
2019-02-26T12:20:02.185Z,95.20
2019-02-26T12:22:35.898Z,95.10
2019-02-26T12:25:29.891Z,94.20
2019-02-26T12:28:05.404Z,93.70
2019-02-26T12:30:58.691Z,93.20
2019-02-26T12:34:05.570Z,91.80
2019-02-26T12:40:25.618Z,90.30
2019-02-26T12:43:06.569Z,87.40
2019-02-26T12:45:47.261Z,86.70
2019-02-26T12:48:19.641Z,84.50
2019-02-26T12:51:07.689Z,83.90
2019-02-26T12:53:50.085Z,83.40
2019-02-26T13:04:12.794Z,80.20
2019-02-26T13:06:47.739Z,77.90
2019-02-26T13:09:19.985Z,76.90
2019-02-26T13:12:00.705Z,76.80
2019-02-26T13:14:35.884Z,77.30
2019-02-26T13:17:21.034Z,70.10
2019-02-26T13:20:05.824Z,67.90
2019-02-26T13:22:32.830Z,68.30
2019-02-26T13:25:03.581Z,67.30
2019-02-26T13:27:35.208Z,67.00
2019-02-26T13:30:04.797Z,62.70
2019-02-26T13:32:55.295Z,61.70
2019-02-26T13:35:14.258Z,60.90
2019-02-26T13:37:47.040Z,53.80
2019-02-26T13:40:19.179Z,53.30
2019-02-26T13:51:08.680Z,53.50
2019-02-26T13:54:15.986Z,52.50
2019-02-26T13:57:15.496Z,53.70
2019-02-26T14:00:05.363Z,52.50
2019-02-26T14:02:55.933Z,53.20
2019-02-26T14:09:23.243Z,52.00
2019-02-26T14:11:53.292Z,50.50
2019-02-26T14:14:25.063Z,50.20
2019-02-26T14:16:58.846Z,50.30
2019-02-26T14:19:28.510Z,48.10
2019-02-26T14:21:56.622Z,46.90
2019-02-26T14:24:35.530Z,47.40
2019-02-26T14:27:04.694Z,47.60
2019-02-26T14:41:16.174Z,48.00
2019-02-26T14:44:14.206Z,47.00
2019-02-26T14:46:59.252Z,45.40
2019-02-26T14:49:44.216Z,45.00
2019-02-26T14:59:16.518Z,46.70
2019-02-26T15:01:57.423Z,46.20
2019-02-26T15:04:30.879Z,46.50
2019-02-26T15:07:03.796Z,45.50
2019-02-26T15:09:31.564Z,43.80
2019-02-26T15:12:01.788Z,43.50
2019-02-26T15:14:30.453Z,45.00
2019-02-26T15:16:58.412Z,45.40
2019-02-26T15:20:00.457Z,45.40
2019-02-26T15:22:33.828Z,45.30
2019-02-26T15:30:11.422Z,46.00
2019-02-26T15:33:43.182Z,46.80
2019-02-26T15:36:54.087Z,48.30
2019-02-26T15:39:44.614Z,48.80
2019-02-26T15:42:19.124Z,49.10
2019-02-26T15:49:12.626Z,50.20
2019-02-26T15:53:01.748Z,49.50
2019-02-26T15:56:29.397Z,50.00
2019-02-26T15:59:08.269Z,50.50
2019-02-26T16:02:34.075Z,49.50
2019-02-26T16:05:46.863Z,49.40
2019-02-26T16:08:54.660Z,49.50
2019-02-26T16:11:46.463Z,49.30
2019-02-26T16:14:57.212Z,50.00
2019-02-26T16:18:08.355Z,50.00
2019-02-26T16:25:00.792Z,50.00
2019-02-26T16:27:54.517Z,50.50
2019-02-26T16:30:40.611Z,49.80
2019-02-26T16:45:01.204Z,51.10
2019-02-26T16:53:40.333Z,54.50
2019-02-26T16:56:21.971Z,56.00
2019-02-26T16:59:02.774Z,56.20
2019-02-26T17:01:42.493Z,56.30
2019-02-26T17:04:22.927Z,57.60
2019-02-26T17:16:02.197Z,59.00
2019-02-26T17:25:03.282Z,61.00
2019-02-26T17:27:43.273Z,61.90
2019-02-26T17:30:24.677Z,61.20
2019-02-26T17:35:00.894Z,61.90
2019-02-26T17:35:53.043Z,61.80
2019-02-26T17:44:08.770Z,64.20
2019-02-26T18:07:31.336Z,71.90
2019-02-26T18:10:24.950Z,73.00
2019-02-26T18:16:37.386Z,79.10
2019-02-26T18:19:15.943Z,80.30
2019-02-26T18:22:22.385Z,80.50
2019-02-26T18:25:54.680Z,82.30
2019-02-26T18:29:25.714Z,82.70
2019-02-26T18:32:13.145Z,85.60
2019-02-26T18:43:50.099Z,88.50
2019-02-26T18:46:58.670Z,88.10
2019-02-26T18:52:55.314Z,87.90
2019-02-26T19:08:11.834Z,90.50
2019-02-26T19:26:17.764Z,94.70
2019-02-26T19:38:47.529Z,94.40
2019-02-26T19:47:56.063Z,94.30
2019-02-26T19:50:38.102Z,94.40
2019-02-26T19:56:28.723Z,94.80
2019-02-26T20:09:53.290Z,96.10
2019-02-26T20:11:34.298Z,96.60
2019-02-26T20:20:25.411Z,97.40
2019-02-26T20:32:49.137Z,98.10
2019-02-26T20:45:57.638Z,98.70
2019-02-26T20:51:08.941Z,99.20
2019-02-26T21:03:19.905Z,99.70
2019-02-26T21:09:18.350Z,99.90
2019-02-26T21:11:59.129Z,99.90
2019-02-26T21:17:44.067Z,99.90
2019-02-26T21:29:51.006Z,99.90
2019-02-26T21:36:15.778Z,99.90
2019-02-26T21:42:14.673Z,99.90
2019-02-26T21:48:11.459Z,99.90
2019-02-26T21:51:11.299Z,99.90
2019-02-26T21:53:51.826Z,99.90
2019-02-26T21:56:30.059Z,99.90
2019-02-26T21:59:20.626Z,99.90
2019-02-26T22:05:54.295Z,99.90
2019-02-26T22:08:24.588Z,99.90
2019-02-26T22:10:51.553Z,99.90
2019-02-26T22:13:19.694Z,99.90
2019-02-26T22:15:47.883Z,99.90
2019-02-26T22:18:19.759Z,99.90
2019-02-26T22:20:47.478Z,99.90
2019-02-26T22:23:16.623Z,99.90
2019-02-26T22:25:46.768Z,99.90
2019-02-26T22:32:11.557Z,99.90
2019-02-26T22:34:53.602Z,99.90
2019-02-26T22:37:25.019Z,99.90
2019-02-26T22:39:53.579Z,99.90
2019-02-26T22:42:22.295Z,99.90
2019-02-26T22:44:50.168Z,99.90
2019-02-26T22:47:18.193Z,99.90
2019-02-26T22:49:48.719Z,99.90
2019-02-26T22:52:24.738Z,99.90
2019-02-26T22:54:55.930Z,99.90
2019-02-26T22:57:23.502Z,99.90
2019-02-26T22:59:53.069Z,99.90
2019-02-26T23:02:21.763Z,99.90
2019-02-26T23:04:52.548Z,99.90
2019-02-26T23:07:19.042Z,99.90
2019-02-26T23:09:47.268Z,99.90
2019-02-26T23:12:16.454Z,99.90
2019-02-26T23:14:45.146Z,99.90
2019-02-26T23:17:13.079Z,99.90
2019-02-26T23:19:40.810Z,99.90
2019-02-26T23:22:08.854Z,99.90
2019-02-26T23:24:36.798Z,99.90
2019-02-26T23:27:05.836Z,99.90
2019-02-26T23:29:33.832Z,99.90
2019-02-26T23:32:03.774Z,99.90
2019-02-26T23:34:32.196Z,99.90
2019-02-26T23:37:00.849Z,99.90
2019-02-26T23:39:29.170Z,99.90
2019-02-26T23:41:56.975Z,99.90
2019-02-26T23:44:24.594Z,99.90
2019-02-26T23:46:52.518Z,99.90
2019-02-26T23:49:20.272Z,99.90
2019-02-26T23:51:48.047Z,99.90
2019-02-26T23:54:16.265Z,99.90
2019-02-26T23:56:45.963Z,99.90
2019-02-26T23:59:13.589Z,99.90
